createdAt,value
2019-05-29T00:03:53.316Z,0.017
2019-05-29T00:09:08.729Z,-0.004
2019-05-29T00:14:27.294Z,0.023
2019-05-29T00:24:56.960Z,-0.006
2019-05-29T00:30:14.890Z,0.113
2019-05-29T00:35:28.862Z,-0.025
2019-05-29T00:40:44.137Z,0.007
2019-05-29T00:45:59.197Z,0.044
2019-05-29T00:51:15.078Z,0.017
2019-05-29T00:56:29.904Z,0.023
2019-05-29T01:01:45.852Z,0.022
2019-05-29T01:06:59.725Z,-0.016
2019-05-29T01:12:17.118Z,-0.003
2019-05-29T01:17:32.885Z,0.004
2019-05-29T01:22:48.051Z,0.042
2019-05-29T01:28:04.309Z,0.031
2019-05-29T01:33:20.401Z,0.025
2019-05-29T01:38:40.070Z,-0.005
2019-05-29T01:43:55.437Z,0.011
2019-05-29T01:49:11.481Z,-0.003
2019-05-29T01:54:27.946Z,-0.001
2019-05-29T01:59:43.118Z,-0.022
2019-05-29T02:05:00.160Z,0.012
2019-05-29T02:10:15.962Z,0.002
2019-05-29T02:15:34.029Z,0.039
2019-05-29T02:20:48.688Z,0.017
2019-05-29T02:26:03.798Z,0.013
2019-05-29T02:31:21.259Z,0
2019-05-29T02:36:42.204Z,0.003
2019-05-29T02:41:57.031Z,0.003
2019-05-29T02:47:13.502Z,0.001
2019-05-29T02:52:28.535Z,0.004
2019-05-29T02:57:46.644Z,0.005
2019-05-29T03:03:05.636Z,0.003
2019-05-29T03:08:22.206Z,-0.004
2019-05-29T03:13:43.606Z,0.01
2019-05-29T03:18:58.980Z,0.009
2019-05-29T03:24:13.907Z,0.033
2019-05-29T03:29:29.961Z,0.022
2019-05-29T03:34:48.434Z,0.024
2019-05-29T03:40:03.523Z,0.007
2019-05-29T03:45:18.614Z,0.035
2019-05-29T03:50:34.871Z,0.022
2019-05-29T03:55:50.129Z,0.017
2019-05-29T04:01:05.230Z,0.015
2019-05-29T04:06:20.564Z,0.017
2019-05-29T04:11:35.671Z,0.018
2019-05-29T04:16:59.447Z,0.02
2019-05-29T04:22:15.908Z,0.021
2019-05-29T04:27:35.750Z,-0.019
2019-05-29T04:32:52.280Z,0
2019-05-29T04:38:08.161Z,0.048
2019-05-29T04:43:23.689Z,0.03
2019-05-29T04:48:38.203Z,0.023
2019-05-29T04:53:55.136Z,0.017
2019-05-29T04:59:13.091Z,0.036
2019-05-29T05:04:31.064Z,0.152
2019-05-29T05:09:47.583Z,0.181
2019-05-29T05:15:03.819Z,0.099
2019-05-29T05:20:20.466Z,0.164
2019-05-29T05:25:38.295Z,0.172
2019-05-29T05:30:54.994Z,0.098
2019-05-29T05:41:26.563Z,-0.027
2019-05-29T06:23:43.402Z,-0.012
2019-05-29T06:28:57.455Z,-0.022
2019-05-29T07:05:33.028Z,-0.024
2019-05-29T07:10:49.582Z,-0.023
2019-05-29T07:21:20.198Z,-0.017
2019-05-29T07:26:36.858Z,-0.028
2019-05-29T07:31:53.685Z,0.007
2019-05-29T07:37:09.368Z,0.029
2019-05-29T07:42:24.651Z,0.002
2019-05-29T07:47:38.245Z,0.002
2019-05-29T07:48:16.261Z,0.002
2019-05-29T07:53:33.543Z,-0.002
2019-05-29T07:58:56.114Z,0
2019-05-29T08:04:15.294Z,-0.011
2019-05-29T08:14:45.797Z,-0.027
2019-05-29T08:20:06.725Z,-0.014
2019-05-29T08:20:37.587Z,0.009
2019-05-29T08:25:51.844Z,0.006
2019-05-29T08:26:28.030Z,0.002
2019-05-29T08:31:43.139Z,0.02
2019-05-29T08:37:06.792Z,-0.013
2019-05-29T08:47:37.668Z,-0.02
2019-05-29T08:52:57.243Z,-0.025
2019-05-29T08:58:13.314Z,-0.009
2019-05-29T09:03:29.906Z,0.013
2019-05-29T09:08:46.600Z,-0.025
2019-05-29T09:14:08.833Z,-0.014
2019-05-29T09:24:36.296Z,-0.024
2019-05-29T09:29:52.996Z,-0.005
2019-05-29T09:40:23.065Z,0.023
2019-05-29T09:45:40.899Z,-0.005
2019-05-29T09:46:18.161Z,0.024
2019-05-29T09:51:35.808Z,-0.026
2019-05-29T09:56:54.184Z,-0.004
2019-05-29T09:57:25.026Z,-0.004
2019-05-29T10:02:39.611Z,-0.016
2019-05-29T10:13:08.908Z,0.01
2019-05-29T10:18:31.741Z,-0.028
2019-05-29T10:23:48.759Z,-0.009
2019-05-29T10:29:08.991Z,-0.024
2019-05-29T11:00:38.143Z,-0.006
2019-05-29T11:05:56.340Z,0.014
2019-05-29T11:58:30.422Z,-0.005
2019-05-29T12:04:07.380Z,0.021
2019-05-29T12:09:39.348Z,-0.02
2019-05-29T12:30:37.595Z,0.004
2019-05-29T12:35:56.861Z,0.011
2019-05-29T12:41:13.639Z,0.018
2019-05-29T12:46:30.540Z,0.027
2019-05-29T12:51:44.504Z,-0.01
2019-05-29T12:57:02.293Z,0.007
2019-05-29T13:02:20.131Z,0.035
2019-05-29T13:07:36.588Z,-0.015
2019-05-29T17:34:17.064Z,-0.016
2019-05-29T17:39:33.101Z,-0.016
2019-05-29T17:44:48.392Z,-0.017
2019-05-29T17:50:03.735Z,-0.003
2019-05-29T17:55:21.756Z,-0.019
2019-05-29T18:00:42.237Z,-0.006
2019-05-29T18:05:57.322Z,0
2019-05-29T18:11:12.287Z,0.026
2019-05-29T18:16:27.713Z,0.009
2019-05-29T18:21:42.542Z,0.005
2019-05-29T18:26:59.117Z,0.003
2019-05-29T18:32:14.749Z,0.006
2019-05-29T18:37:32.384Z,0.009
2019-05-29T18:42:47.741Z,0.012
2019-05-29T18:48:02.873Z,0.015
2019-05-29T18:53:17.843Z,0.019
2019-05-29T18:58:32.872Z,0.025
2019-05-29T19:03:48.154Z,0.028
2019-05-29T19:09:03.420Z,0.031
2019-05-29T19:14:18.411Z,0.008
2019-05-29T19:19:32.485Z,0.057
2019-05-29T19:24:48.329Z,0.044
2019-05-29T19:30:03.330Z,0.038
2019-05-29T19:35:18.472Z,0.038
2019-05-29T19:40:34.695Z,0.038
2019-05-29T19:45:49.878Z,0.037
2019-05-29T19:51:06.482Z,0.033
2019-05-29T19:56:22.125Z,0.007
2019-05-29T20:01:40.295Z,0.053
2019-05-29T20:06:56.747Z,0.041
2019-05-29T20:12:12.721Z,0.036
2019-05-29T20:17:27.955Z,0.042
2019-05-29T20:22:42.792Z,0.033
2019-05-29T20:28:05.709Z,0.058
2019-05-29T20:33:20.988Z,0.053
2019-05-29T20:38:39.216Z,0.017
2019-05-29T20:43:54.279Z,0
2019-05-29T20:49:09.189Z,-0.001
2019-05-29T20:54:25.196Z,-0.003
2019-05-29T20:59:40.038Z,0.004
2019-05-29T21:04:55.182Z,0.001
2019-05-29T21:10:11.301Z,0
2019-05-29T21:15:26.399Z,0.006
2019-05-29T21:20:42.638Z,0.009
2019-05-29T21:26:00.188Z,0.007
2019-05-29T21:31:14.360Z,0.007
2019-05-29T21:36:30.654Z,0.009
2019-05-29T21:41:46.984Z,0.01
2019-05-29T21:47:01.995Z,0.01
2019-05-29T21:52:17.972Z,0.01
2019-05-29T21:57:33.232Z,0.001
2019-05-29T21:58:09.628Z,0.008
2019-05-29T22:03:24.580Z,0.043
2019-05-29T22:08:40.781Z,0.034
2019-05-29T22:13:56.521Z,0.028
2019-05-29T22:19:11.645Z,0.016
2019-05-29T22:24:26.764Z,0.013
2019-05-29T22:29:41.826Z,0.01
2019-05-29T22:34:57.836Z,0.012
2019-05-29T22:40:13.891Z,-0.025
2019-05-29T22:55:55.737Z,-0.017
2019-05-29T23:01:11.913Z,0.063
2019-05-29T23:06:27.135Z,-0.011
2019-05-29T23:11:43.736Z,-0.003
2019-05-29T23:16:56.514Z,-0.02
2019-05-29T23:22:13.605Z,-0.002
2019-05-29T23:27:28.743Z,0.017
2019-05-29T23:32:43.676Z,0
2019-05-29T23:37:57.012Z,0.045
2019-05-29T23:43:12.811Z,0.026
2019-05-29T23:48:27.846Z,0.022
2019-05-29T23:53:42.983Z,0.005
